sensor_id;sensor_type;location;lat;lon;timestamp;pressure;altitude;pressure_sealevel;temperature;humidity
35892;BME280;21993;42.672;23.296;2024-02-26T00:01:36;94280.81;;;10.80;71.42
35892;BME280;21993;42.672;23.296;2024-02-26T00:04:01;94289.34;;;10.82;71.24
35892;BME280;21993;42.672;23.296;2024-02-26T00:06:28;94280.22;;;10.86;71.10
35892;BME280;21993;42.672;23.296;2024-02-26T00:08:54;94282.69;;;10.88;70.99
35892;BME280;21993;42.672;23.296;2024-02-26T00:11:20;94274.06;;;10.78;71.35
35892;BME280;21993;42.672;23.296;2024-02-26T00:13:45;94285.28;;;10.70;71.78
35892;BME280;21993;42.672;23.296;2024-02-26T00:16:11;94284.00;;;10.74;71.52
35892;BME280;21993;42.672;23.296;2024-02-26T00:18:36;94274.63;;;10.71;71.64
35892;BME280;21993;42.672;23.296;2024-02-26T00:21:02;94280.41;;;10.75;70.91
35892;BME280;21993;42.672;23.296;2024-02-26T00:23:28;94284.63;;;10.68;70.99
35892;BME280;21993;42.672;23.296;2024-02-26T00:25:53;94277.00;;;10.65;70.57
35892;BME280;21993;42.672;23.296;2024-02-26T00:28:20;94262.56;;;10.61;71.03
35892;BME280;21993;42.672;23.296;2024-02-26T00:30:46;94264.56;;;10.67;70.96
35892;BME280;21993;42.672;23.296;2024-02-26T00:33:12;94269.69;;;10.41;71.35
35892;BME280;21993;42.672;23.296;2024-02-26T00:35:37;94263.00;;;10.19;72.18
35892;BME280;21993;42.672;23.296;2024-02-26T00:38:03;94261.88;;;10.22;72.32
35892;BME280;21993;42.672;23.296;2024-02-26T00:40:29;94266.94;;;10.33;71.36
35892;BME280;21993;42.672;23.296;2024-02-26T00:42:55;94252.75;;;10.35;72.11
35892;BME280;21993;42.672;23.296;2024-02-26T00:45:22;94249.81;;;10.38;71.28
35892;BME280;21993;42.672;23.296;2024-02-26T00:47:47;94252.69;;;10.45;71.47
35892;BME280;21993;42.672;23.296;2024-02-26T00:50:14;94248.09;;;10.47;71.40
35892;BME280;21993;42.672;23.296;2024-02-26T00:52:40;94248.50;;;10.52;70.95
35892;BME280;21993;42.672;23.296;2024-02-26T00:55:06;94250.59;;;10.49;71.21
35892;BME280;21993;42.672;23.296;2024-02-26T00:57:32;94247.28;;;10.47;71.74
35892;BME280;21993;42.672;23.296;2024-02-26T00:59:57;94233.84;;;10.50;72.17
35892;BME280;21993;42.672;23.296;2024-02-26T01:02:24;94242.56;;;10.50;71.64
35892;BME280;21993;42.672;23.296;2024-02-26T01:04:50;94240.63;;;10.52;71.77
35892;BME280;21993;42.672;23.296;2024-02-26T01:07:15;94237.72;;;10.55;71.74
35892;BME280;21993;42.672;23.296;2024-02-26T01:09:41;94230.34;;;10.59;71.64
35892;BME280;21993;42.672;23.296;2024-02-26T01:12:07;94225.41;;;10.56;71.94
35892;BME280;21993;42.672;23.296;2024-02-26T01:14:33;94229.53;;;10.58;72.13
35892;BME280;21993;42.672;23.296;2024-02-26T01:16:58;94229.94;;;10.63;71.79
35892;BME280;21993;42.672;23.296;2024-02-26T01:19:24;94233.22;;;10.65;72.14
35892;BME280;21993;42.672;23.296;2024-02-26T01:21:50;94235.03;;;10.65;72.24
35892;BME280;21993;42.672;23.296;2024-02-26T01:24:15;94234.44;;;10.71;71.52
35892;BME280;21993;42.672;23.296;2024-02-26T01:26:41;94233.16;;;10.75;71.45
35892;BME280;21993;42.672;23.296;2024-02-26T01:29:06;94234.94;;;10.75;71.34
35892;BME280;21993;42.672;23.296;2024-02-26T01:31:32;94226.94;;;10.76;71.58
35892;BME280;21993;42.672;23.296;2024-02-26T01:33:57;94221.00;;;10.74;71.91
35892;BME280;21993;42.672;23.296;2024-02-26T01:36:23;94222.38;;;10.78;72.08
35892;BME280;21993;42.672;23.296;2024-02-26T01:38:48;94217.78;;;10.80;71.80
35892;BME280;21993;42.672;23.296;2024-02-26T01:41:14;94227.63;;;10.78;72.31
35892;BME280;21993;42.672;23.296;2024-02-26T01:43:40;94224.53;;;10.83;72.35
35892;BME280;21993;42.672;23.296;2024-02-26T01:46:07;94217.78;;;10.80;72.23
35892;BME280;21993;42.672;23.296;2024-02-26T01:48:41;94222.63;;;10.85;71.83
35892;BME280;21993;42.672;23.296;2024-02-26T01:51:08;94215.41;;;10.87;71.51
35892;BME280;21993;42.672;23.296;2024-02-26T01:53:35;94208.50;;;10.86;72.22
35892;BME280;21993;42.672;23.296;2024-02-26T01:56:01;94207.97;;;10.82;71.50
35892;BME280;21993;42.672;23.296;2024-02-26T01:58:27;94208.94;;;10.81;71.69
35892;BME280;21993;42.672;23.296;2024-02-26T02:00:53;94211.88;;;10.78;71.26
35892;BME280;21993;42.672;23.296;2024-02-26T02:03:19;94213.59;;;10.87;71.18
35892;BME280;21993;42.672;23.296;2024-02-26T02:05:44;94210.59;;;10.82;71.08
35892;BME280;21993;42.672;23.296;2024-02-26T02:08:10;94209.59;;;10.83;70.89
35892;BME280;21993;42.672;23.296;2024-02-26T02:10:41;94214.66;;;10.77;71.39
35892;BME280;21993;42.672;23.296;2024-02-26T02:13:07;94215.59;;;10.76;71.83
35892;BME280;21993;42.672;23.296;2024-02-26T02:15:33;94207.59;;;10.77;71.64
35892;BME280;21993;42.672;23.296;2024-02-26T02:17:59;94204.97;;;10.77;71.57
35892;BME280;21993;42.672;23.296;2024-02-26T02:20:34;94210.59;;;10.82;71.41
35892;BME280;21993;42.672;23.296;2024-02-26T02:23:00;94204.22;;;10.85;71.06
35892;BME280;21993;42.672;23.296;2024-02-26T02:25:26;94206.00;;;10.84;71.59
35892;BME280;21993;42.672;23.296;2024-02-26T02:27:55;94214.72;;;10.85;71.09
35892;BME280;21993;42.672;23.296;2024-02-26T02:30:25;94208.19;;;10.89;71.18
35892;BME280;21993;42.672;23.296;2024-02-26T02:32:52;94202.44;;;10.85;71.47
35892;BME280;21993;42.672;23.296;2024-02-26T02:35:18;94193.84;;;10.83;71.61
35892;BME280;21993;42.672;23.296;2024-02-26T02:37:43;94198.50;;;10.89;70.87
35892;BME280;21993;42.672;23.296;2024-02-26T02:40:09;94206.47;;;10.97;70.99
35892;BME280;21993;42.672;23.296;2024-02-26T02:42:35;94214.94;;;10.91;71.31
35892;BME280;21993;42.672;23.296;2024-02-26T02:45:00;94214.13;;;10.91;70.85
35892;BME280;21993;42.672;23.296;2024-02-26T02:47:26;94205.97;;;10.94;71.59
35892;BME280;21993;42.672;23.296;2024-02-26T02:49:51;94215.75;;;10.92;71.00
35892;BME280;21993;42.672;23.296;2024-02-26T02:52:17;94222.38;;;10.96;71.37
35892;BME280;21993;42.672;23.296;2024-02-26T02:54:42;94230.53;;;10.93;71.68
35892;BME280;21993;42.672;23.296;2024-02-26T02:57:08;94233.16;;;10.93;71.23
35892;BME280;21993;42.672;23.296;2024-02-26T02:59:35;94222.38;;;10.96;71.39
35892;BME280;21993;42.672;23.296;2024-02-26T03:02:00;94220.88;;;10.93;71.35
35892;BME280;21993;42.672;23.296;2024-02-26T03:04:26;94220.03;;;10.93;71.44
35892;BME280;21993;42.672;23.296;2024-02-26T03:06:51;94207.06;;;10.91;71.40
35892;BME280;21993;42.672;23.296;2024-02-26T03:09:17;94221.00;;;10.92;71.58
35892;BME280;21993;42.672;23.296;2024-02-26T03:11:43;94221.31;;;10.89;71.72
35892;BME280;21993;42.672;23.296;2024-02-26T03:14:08;94216.59;;;10.92;71.49
35892;BME280;21993;42.672;23.296;2024-02-26T03:16:35;94224.19;;;10.95;71.44
35892;BME280;21993;42.672;23.296;2024-02-26T03:19:00;94222.38;;;10.96;71.63
35892;BME280;21993;42.672;23.296;2024-02-26T03:21:27;94221.25;;;10.98;70.89
35892;BME280;21993;42.672;23.296;2024-02-26T03:23:52;94216.97;;;10.97;70.94
35892;BME280;21993;42.672;23.296;2024-02-26T03:26:18;94205.97;;;10.94;71.23
35892;BME280;21993;42.672;23.296;2024-02-26T03:28:44;94201.66;;;10.93;71.14
35892;BME280;21993;42.672;23.296;2024-02-26T03:31:09;94201.66;;;10.93;70.98
35892;BME280;21993;42.672;23.296;2024-02-26T03:33:36;94199.03;;;10.93;71.41
35892;BME280;21993;42.672;23.296;2024-02-26T03:36:01;94196.94;;;10.96;71.18
35892;BME280;21993;42.672;23.296;2024-02-26T03:38:28;94193.78;;;10.93;71.63
35892;BME280;21993;42.672;23.296;2024-02-26T03:40:54;94201.53;;;10.94;71.64
35892;BME280;21993;42.672;23.296;2024-02-26T03:43:19;94207.38;;;10.88;71.52
35892;BME280;21993;42.672;23.296;2024-02-26T03:45:45;94203.31;;;10.94;71.44
35892;BME280;21993;42.672;23.296;2024-02-26T03:48:10;94206.09;;;10.92;70.88
35892;BME280;21993;42.672;23.296;2024-02-26T03:50:36;94198.50;;;10.89;71.59
35892;BME280;21993;42.672;23.296;2024-02-26T03:53:02;94189.00;;;10.88;71.59
35892;BME280;21993;42.672;23.296;2024-02-26T03:55:27;94187.34;;;10.87;71.66
35892;BME280;21993;42.672;23.296;2024-02-26T03:57:53;94194.56;;;10.85;71.83
35892;BME280;21993;42.672;23.296;2024-02-26T04:00:19;94196.19;;;10.86;71.98
35892;BME280;21993;42.672;23.296;2024-02-26T04:02:46;94190.31;;;10.92;71.69
35892;BME280;21993;42.672;23.296;2024-02-26T04:05:12;94187.19;;;10.89;71.95
35892;BME280;21993;42.672;23.296;2024-02-26T04:07:38;94186.38;;;10.88;72.12
35892;BME280;21993;42.672;23.296;2024-02-26T04:10:11;94184.88;;;10.86;71.93
35892;BME280;21993;42.672;23.296;2024-02-26T04:12:41;94185.53;;;10.88;72.22
35892;BME280;21993;42.672;23.296;2024-02-26T04:15:08;94186.53;;;10.87;72.00
35892;BME280;21993;42.672;23.296;2024-02-26T04:17:34;94178.50;;;10.88;72.01
35892;BME280;21993;42.672;23.296;2024-02-26T04:20:00;94183.06;;;10.86;71.98
35892;BME280;21993;42.672;23.296;2024-02-26T04:22:25;94174.38;;;10.86;72.02
35892;BME280;21993;42.672;23.296;2024-02-26T04:24:51;94177.13;;;10.84;71.74
35892;BME280;21993;42.672;23.296;2024-02-26T04:27:16;94173.00;;;10.82;72.13
35892;BME280;21993;42.672;23.296;2024-02-26T04:29:42;94181.84;;;10.81;72.11
35892;BME280;21993;42.672;23.296;2024-02-26T04:32:07;94174.13;;;10.79;72.07
35892;BME280;21993;42.672;23.296;2024-02-26T04:34:33;94174.13;;;10.79;72.45
35892;BME280;21993;42.672;23.296;2024-02-26T04:36:58;94180.22;;;10.80;72.30
35892;BME280;21993;42.672;23.296;2024-02-26T04:39:24;94187.25;;;10.79;72.23
35892;BME280;21993;42.672;23.296;2024-02-26T04:41:49;94177.75;;;10.78;72.30
35892;BME280;21993;42.672;23.296;2024-02-26T04:44:15;94171.78;;;10.76;72.44
35892;BME280;21993;42.672;23.296;2024-02-26T04:46:41;94186.59;;;10.77;72.90
35892;BME280;21993;42.672;23.296;2024-02-26T04:49:06;94175.63;;;10.82;72.73
35892;BME280;21993;42.672;23.296;2024-02-26T04:51:32;94176.44;;;10.82;73.02
35892;BME280;21993;42.672;23.296;2024-02-26T04:53:57;94183.50;;;10.82;73.27
35892;BME280;21993;42.672;23.296;2024-02-26T04:56:23;94190.88;;;10.78;72.99
35892;BME280;21993;42.672;23.296;2024-02-26T04:58:49;94188.25;;;10.78;73.45
35892;BME280;21993;42.672;23.296;2024-02-26T05:01:15;94187.25;;;10.79;73.09
35892;BME280;21993;42.672;23.296;2024-02-26T05:03:42;94188.25;;;10.78;73.43
35892;BME280;21993;42.672;23.296;2024-02-26T05:06:08;94201.06;;;10.81;73.20
35892;BME280;21993;42.672;23.296;2024-02-26T05:08:34;94206.47;;;10.80;72.98
35892;BME280;21993;42.672;23.296;2024-02-26T05:11:02;94206.91;;;10.75;73.51
35892;BME280;21993;42.672;23.296;2024-02-26T05:13:28;94212.47;;;10.72;73.51
35892;BME280;21993;42.672;23.296;2024-02-26T05:15:54;94214.66;;;10.77;73.44
35892;BME280;21993;42.672;23.296;2024-02-26T05:18:20;94222.38;;;10.78;73.63
35892;BME280;21993;42.672;23.296;2024-02-26T05:20:45;94224.69;;;10.81;73.35
35892;BME280;21993;42.672;23.296;2024-02-26T05:23:11;94216.00;;;10.81;73.63
35892;BME280;21993;42.672;23.296;2024-02-26T05:25:36;94224.19;;;10.78;73.53
35892;BME280;21993;42.672;23.296;2024-02-26T05:28:03;94226.50;;;10.81;73.76
35892;BME280;21993;42.672;23.296;2024-02-26T05:30:29;94221.41;;;10.79;73.80
35892;BME280;21993;42.672;23.296;2024-02-26T05:32:55;94241.13;;;10.83;73.65
35892;BME280;21993;42.672;23.296;2024-02-26T05:35:20;94239.47;;;10.82;74.03
35892;BME280;21993;42.672;23.296;2024-02-26T05:37:46;94242.91;;;10.83;73.94
35892;BME280;21993;42.672;23.296;2024-02-26T05:40:12;94242.31;;;10.89;73.37
35892;BME280;21993;42.672;23.296;2024-02-26T05:42:37;94240.53;;;10.89;73.71
35892;BME280;21993;42.672;23.296;2024-02-26T05:45:03;94241.50;;;10.88;73.68
35892;BME280;21993;42.672;23.296;2024-02-26T05:47:34;94246.59;;;10.90;73.13
35892;BME280;21993;42.672;23.296;2024-02-26T05:50:01;94240.00;;;10.86;73.51
35892;BME280;21993;42.672;23.296;2024-02-26T05:52:27;94248.09;;;10.92;73.17
35892;BME280;21993;42.672;23.296;2024-02-26T05:54:53;94242.84;;;10.92;73.16
35892;BME280;21993;42.672;23.296;2024-02-26T05:57:19;94244.97;;;10.89;73.34
35892;BME280;21993;42.672;23.296;2024-02-26T05:59:45;94246.59;;;10.90;73.72
35892;BME280;21993;42.672;23.296;2024-02-26T06:02:10;94251.03;;;10.89;73.49
35892;BME280;21993;42.672;23.296;2024-02-26T06:04:36;94248.25;;;10.91;73.53
35892;BME280;21993;42.672;23.296;2024-02-26T06:07:02;94250.34;;;10.87;73.54
35892;BME280;21993;42.672;23.296;2024-02-26T06:09:27;94264.47;;;10.86;73.27
35892;BME280;21993;42.672;23.296;2024-02-26T06:11:53;94260.19;;;10.85;73.79
35892;BME280;21993;42.672;23.296;2024-02-26T06:14:19;94255.88;;;10.84;73.60
35892;BME280;21993;42.672;23.296;2024-02-26T06:16:46;94259.22;;;10.86;73.79
35892;BME280;21993;42.672;23.296;2024-02-26T06:19:11;94262.50;;;10.88;73.43
35892;BME280;21993;42.672;23.296;2024-02-26T06:21:37;94264.00;;;10.91;72.95
35892;BME280;21993;42.672;23.296;2024-02-26T06:24:03;94263.84;;;10.92;73.48
35892;BME280;21993;42.672;23.296;2024-02-26T06:26:28;94251.63;;;11.01;72.78
35892;BME280;21993;42.672;23.296;2024-02-26T06:28:55;94255.53;;;10.97;72.64
35892;BME280;21993;42.672;23.296;2024-02-26T06:31:21;94265.47;;;11.03;72.75
35892;BME280;21993;42.672;23.296;2024-02-26T06:33:48;94253.59;;;10.99;73.29
35892;BME280;21993;42.672;23.296;2024-02-26T06:36:15;94264.31;;;11.06;73.11
35892;BME280;21993;42.672;23.296;2024-02-26T06:38:40;94256.53;;;11.14;72.45
35892;BME280;21993;42.672;23.296;2024-02-26T06:41:06;94254.50;;;11.08;72.51
35892;BME280;21993;42.672;23.296;2024-02-26T06:43:34;94265.66;;;11.10;72.85
35892;BME280;21993;42.672;23.296;2024-02-26T06:46:00;94268.25;;;11.02;72.83
35892;BME280;21993;42.672;23.296;2024-02-26T06:48:25;94267.34;;;11.11;72.39
35892;BME280;21993;42.672;23.296;2024-02-26T06:50:51;94259.59;;;11.09;72.64
35892;BME280;21993;42.672;23.296;2024-02-26T06:53:16;94267.53;;;11.17;71.77
35892;BME280;21993;42.672;23.296;2024-02-26T06:55:42;94263.88;;;11.10;72.45
35892;BME280;21993;42.672;23.296;2024-02-26T06:58:08;94257.09;;;11.08;72.59
35892;BME280;21993;42.672;23.296;2024-02-26T07:00:34;94257.78;;;11.10;72.07
35892;BME280;21993;42.672;23.296;2024-02-26T07:03:00;94266.28;;;11.21;71.30
35892;BME280;21993;42.672;23.296;2024-02-26T07:05:27;94262.28;;;11.17;70.34
35892;BME280;21993;42.672;23.296;2024-02-26T07:07:52;94264.78;;;11.19;71.21
35892;BME280;21993;42.672;23.296;2024-02-26T07:10:18;94263.72;;;11.12;70.52
35892;BME280;21993;42.672;23.296;2024-02-26T07:12:44;94268.84;;;11.13;70.79
35892;BME280;21993;42.672;23.296;2024-02-26T07:15:10;94271.22;;;11.07;70.69
35892;BME280;21993;42.672;23.296;2024-02-26T07:17:35;94275.81;;;11.05;71.05
35892;BME280;21993;42.672;23.296;2024-02-26T07:20:01;94283.09;;;11.11;70.73
35892;BME280;21993;42.672;23.296;2024-02-26T07:22:29;94283.63;;;11.14;70.28
35892;BME280;21993;42.672;23.296;2024-02-26T07:24:55;94292.72;;;11.20;70.52
35892;BME280;21993;42.672;23.296;2024-02-26T07:27:20;94279.84;;;11.17;70.73
35892;BME280;21993;42.672;23.296;2024-02-26T07:29:46;94278.28;;;11.24;70.20
35892;BME280;21993;42.672;23.296;2024-02-26T07:32:15;94275.38;;;11.27;69.65
35892;BME280;21993;42.672;23.296;2024-02-26T07:34:41;94276.47;;;11.24;69.99
35892;BME280;21993;42.672;23.296;2024-02-26T07:37:10;94274.31;;;11.20;69.75
35892;BME280;21993;42.672;23.296;2024-02-26T07:39:35;94280.25;;;11.22;69.90
35892;BME280;21993;42.672;23.296;2024-02-26T07:42:02;94286.16;;;11.24;70.28
35892;BME280;21993;42.672;23.296;2024-02-26T07:44:27;94290.22;;;11.36;70.17
35892;BME280;21993;42.672;23.296;2024-02-26T07:46:53;94279.03;;;11.34;70.16
35892;BME280;21993;42.672;23.296;2024-02-26T07:49:18;94277.84;;;11.46;69.68
35892;BME280;21993;42.672;23.296;2024-02-26T07:51:44;94279.09;;;11.42;69.70
35892;BME280;21993;42.672;23.296;2024-02-26T07:54:09;94278.66;;;11.47;69.87
35892;BME280;21993;42.672;23.296;2024-02-26T07:56:35;94280.00;;;11.51;69.63
35892;BME280;21993;42.672;23.296;2024-02-26T07:59:01;94280.22;;;11.57;69.59
35892;BME280;21993;42.672;23.296;2024-02-26T08:01:26;94279.06;;;11.60;69.98
35892;BME280;21993;42.672;23.296;2024-02-26T08:04:04;94274.13;;;11.57;70.06
35892;BME280;21993;42.672;23.296;2024-02-26T08:06:29;94267.03;;;11.75;70.06
35892;BME280;21993;42.672;23.296;2024-02-26T08:08:55;94270.81;;;11.73;70.11
35892;BME280;21993;42.672;23.296;2024-02-26T08:11:20;94261.19;;;11.81;69.46
35892;BME280;21993;42.672;23.296;2024-02-26T08:13:46;94263.66;;;11.83;69.62
35892;BME280;21993;42.672;23.296;2024-02-26T08:16:11;94269.66;;;11.93;69.58
35892;BME280;21993;42.672;23.296;2024-02-26T08:18:37;94268.00;;;11.92;69.92
35892;BME280;21993;42.672;23.296;2024-02-26T08:21:03;94269.03;;;11.99;69.90
35892;BME280;21993;42.672;23.296;2024-02-26T08:23:28;94272.50;;;12.00;68.95
35892;BME280;21993;42.672;23.296;2024-02-26T08:25:54;94267.06;;;12.01;69.42
35892;BME280;21993;42.672;23.296;2024-02-26T08:28:19;94268.38;;;11.97;69.13
35892;BME280;21993;42.672;23.296;2024-02-26T08:30:45;94262.38;;;12.13;68.87
35892;BME280;21993;42.672;23.296;2024-02-26T08:33:10;94262.59;;;12.20;68.79
35892;BME280;21993;42.672;23.296;2024-02-26T08:35:37;94254.75;;;12.28;68.68
35892;BME280;21993;42.672;23.296;2024-02-26T08:38:02;94257.72;;;12.33;68.03
35892;BME280;21993;42.672;23.296;2024-02-26T08:40:28;94258.56;;;12.42;68.26
35892;BME280;21993;42.672;23.296;2024-02-26T08:42:54;94265.84;;;12.48;67.98
35892;BME280;21993;42.672;23.296;2024-02-26T08:45:20;94263.88;;;12.50;67.93
35892;BME280;21993;42.672;23.296;2024-02-26T08:47:46;94265.53;;;12.51;67.41
35892;BME280;21993;42.672;23.296;2024-02-26T08:50:11;94259.63;;;12.57;67.77
35892;BME280;21993;42.672;23.296;2024-02-26T08:52:38;94255.84;;;12.59;67.74
35892;BME280;21993;42.672;23.296;2024-02-26T08:55:04;94259.19;;;12.70;67.48
35892;BME280;21993;42.672;23.296;2024-02-26T08:57:31;94255.88;;;12.67;66.90
35892;BME280;21993;42.672;23.296;2024-02-26T08:59:59;94260.50;;;12.74;66.48
35892;BME280;21993;42.672;23.296;2024-02-26T09:02:25;94255.91;;;12.76;66.68
35892;BME280;21993;42.672;23.296;2024-02-26T09:04:51;94258.56;;;12.84;66.78
35892;BME280;21993;42.672;23.296;2024-02-26T09:07:19;94246.38;;;12.83;66.54
35892;BME280;21993;42.672;23.296;2024-02-26T09:09:45;94244.44;;;13.01;66.36
35892;BME280;21993;42.672;23.296;2024-02-26T09:12:10;94236.56;;;13.09;64.98
35892;BME280;21993;42.672;23.296;2024-02-26T09:14:36;94242.47;;;13.11;64.91
35892;BME280;21993;42.672;23.296;2024-02-26T09:17:02;94244.97;;;13.05;63.89
35892;BME280;21993;42.672;23.296;2024-02-26T09:19:27;94240.84;;;13.10;63.32
35892;BME280;21993;42.672;23.296;2024-02-26T09:21:58;94240.19;;;13.16;62.56
35892;BME280;21993;42.672;23.296;2024-02-26T09:24:24;94250.44;;;13.19;61.70
35892;BME280;21993;42.672;23.296;2024-02-26T09:26:50;94247.44;;;13.14;61.93
35892;BME280;21993;42.672;23.296;2024-02-26T09:29:16;94236.94;;;13.22;62.29
35892;BME280;21993;42.672;23.296;2024-02-26T09:31:41;94243.69;;;13.33;62.06
35892;BME280;21993;42.672;23.296;2024-02-26T09:34:08;94237.44;;;13.42;61.77
35892;BME280;21993;42.672;23.296;2024-02-26T09:36:37;94231.16;;;13.43;61.72
35892;BME280;21993;42.672;23.296;2024-02-26T09:39:02;94233.63;;;13.61;61.53
35892;BME280;21993;42.672;23.296;2024-02-26T09:41:30;94230.03;;;13.62;62.25
35892;BME280;21993;42.672;23.296;2024-02-26T09:43:57;94232.47;;;13.88;61.09
35892;BME280;21993;42.672;23.296;2024-02-26T09:46:26;94235.28;;;13.78;59.75
35892;BME280;21993;42.672;23.296;2024-02-26T09:48:51;94213.69;;;13.75;59.52
35892;BME280;21993;42.672;23.296;2024-02-26T09:51:18;94221.94;;;13.80;59.84
35892;BME280;21993;42.672;23.296;2024-02-26T09:53:54;94229.03;;;13.71;59.87
35892;BME280;21993;42.672;23.296;2024-02-26T09:56:21;94213.19;;;13.79;59.72
35892;BME280;21993;42.672;23.296;2024-02-26T09:58:47;94216.31;;;13.75;59.68
35892;BME280;21993;42.672;23.296;2024-02-26T10:01:19;94215.16;;;13.77;59.50
35892;BME280;21993;42.672;23.296;2024-02-26T10:03:49;94214.28;;;14.01;59.52
35892;BME280;21993;42.672;23.296;2024-02-26T10:06:20;94204.56;;;13.94;58.87
35892;BME280;21993;42.672;23.296;2024-02-26T10:08:46;94203.25;;;14.06;58.77
35892;BME280;21993;42.672;23.296;2024-02-26T10:11:13;94201.88;;;14.18;58.70
35892;BME280;21993;42.672;23.296;2024-02-26T10:13:39;94202.19;;;14.23;58.34
35892;BME280;21993;42.672;23.296;2024-02-26T10:16:05;94190.44;;;14.34;58.51
35892;BME280;21993;42.672;23.296;2024-02-26T10:18:51;94199.16;;;14.51;57.85
35892;BME280;21993;42.672;23.296;2024-02-26T10:21:21;94188.38;;;14.60;56.73
35892;BME280;21993;42.672;23.296;2024-02-26T10:23:48;94190.00;;;14.61;56.68
35892;BME280;21993;42.672;23.296;2024-02-26T10:26:32;94188.25;;;14.46;56.75
35892;BME280;21993;42.672;23.296;2024-02-26T10:28:59;94181.06;;;14.31;56.57
35892;BME280;21993;42.672;23.296;2024-02-26T10:31:26;94173.28;;;14.46;56.53
35892;BME280;21993;42.672;23.296;2024-02-26T10:33:55;94170.56;;;14.54;55.94
35892;BME280;21993;42.672;23.296;2024-02-26T10:36:26;94166.91;;;14.63;56.34
35892;BME280;21993;42.672;23.296;2024-02-26T10:38:51;94167.16;;;14.77;55.73
35892;BME280;21993;42.672;23.296;2024-02-26T10:41:18;94173.66;;;14.66;55.96
35892;BME280;21993;42.672;23.296;2024-02-26T10:43:44;94166.84;;;14.72;56.06
35892;BME280;21993;42.672;23.296;2024-02-26T10:46:09;94153.94;;;14.77;55.62
35892;BME280;21993;42.672;23.296;2024-02-26T10:48:35;94157.09;;;14.95;54.94
35892;BME280;21993;42.672;23.296;2024-02-26T10:51:01;94156.94;;;14.74;54.19
35892;BME280;21993;42.672;23.296;2024-02-26T10:53:29;94160.84;;;14.78;54.00
35892;BME280;21993;42.672;23.296;2024-02-26T10:56:00;94154.75;;;14.77;54.34
35892;BME280;21993;42.672;23.296;2024-02-26T10:58:27;94148.34;;;14.95;54.09
35892;BME280;21993;42.672;23.296;2024-02-26T11:00:56;94159.59;;;14.97;54.01
35892;BME280;21993;42.672;23.296;2024-02-26T11:03:22;94154.06;;;14.83;54.39
35892;BME280;21993;42.672;23.296;2024-02-26T11:05:49;94147.81;;;14.76;54.29
35892;BME280;21993;42.672;23.296;2024-02-26T11:08:16;94153.09;;;14.76;54.68
35892;BME280;21993;42.672;23.296;2024-02-26T11:10:43;94150.81;;;14.73;54.63
35892;BME280;21993;42.672;23.296;2024-02-26T11:13:10;94163.91;;;14.67;54.66
35892;BME280;21993;42.672;23.296;2024-02-26T11:15:38;94152.44;;;14.51;54.50
35892;BME280;21993;42.672;23.296;2024-02-26T11:18:05;94158.66;;;14.58;54.42
35892;BME280;21993;42.672;23.296;2024-02-26T11:20:33;94173.00;;;14.64;54.11
35892;BME280;21993;42.672;23.296;2024-02-26T11:23:00;94144.59;;;14.66;53.87
35892;BME280;21993;42.672;23.296;2024-02-26T11:25:25;94159.22;;;14.46;54.15
35892;BME280;21993;42.672;23.296;2024-02-26T11:27:55;94155.34;;;14.64;54.05
35892;BME280;21993;42.672;23.296;2024-02-26T11:30:29;94143.72;;;14.74;53.86
35892;BME280;21993;42.672;23.296;2024-02-26T11:32:55;94138.75;;;14.71;53.99
35892;BME280;21993;42.672;23.296;2024-02-26T11:35:21;94141.31;;;14.87;53.61
35892;BME280;21993;42.672;23.296;2024-02-26T11:37:57;94131.41;;;14.89;53.70
35892;BME280;21993;42.672;23.296;2024-02-26T11:40:26;94132.66;;;14.70;54.12
35892;BME280;21993;42.672;23.296;2024-02-26T11:42:53;94144.69;;;14.81;53.92
35892;BME280;21993;42.672;23.296;2024-02-26T11:48:14;94128.38;;;14.69;54.23
35892;BME280;21993;42.672;23.296;2024-02-26T11:50:47;94118.31;;;14.73;53.81
35892;BME280;21993;42.672;23.296;2024-02-26T11:58:44;94122.13;;;14.93;53.33
35892;BME280;21993;42.672;23.296;2024-02-26T12:04:27;94125.94;;;15.13;52.62
35892;BME280;21993;42.672;23.296;2024-02-26T12:06:59;94129.16;;;15.01;52.10
35892;BME280;21993;42.672;23.296;2024-02-26T12:09:43;94124.13;;;14.91;52.01
35892;BME280;21993;42.672;23.296;2024-02-26T12:12:10;94123.41;;;14.97;51.61
35892;BME280;21993;42.672;23.296;2024-02-26T12:14:40;94133.16;;;14.97;51.86
35892;BME280;21993;42.672;23.296;2024-02-26T12:17:07;94131.50;;;14.96;51.75
35892;BME280;21993;42.672;23.296;2024-02-26T12:19:40;94133.22;;;14.88;52.06
35892;BME280;21993;42.672;23.296;2024-02-26T12:22:08;94135.31;;;14.93;52.05
35892;BME280;21993;42.672;23.296;2024-02-26T12:24:34;94125.88;;;14.99;51.37
35892;BME280;21993;42.672;23.296;2024-02-26T12:26:59;94130.44;;;15.05;51.71
35892;BME280;21993;42.672;23.296;2024-02-26T12:29:25;94134.78;;;15.20;50.73
35892;BME280;21993;42.672;23.296;2024-02-26T12:31:51;94133.63;;;15.23;50.28
35892;BME280;21993;42.672;23.296;2024-02-26T12:34:16;94134.63;;;15.22;50.39
35892;BME280;21993;42.672;23.296;2024-02-26T12:36:42;94138.44;;;15.19;50.54
35892;BME280;21993;42.672;23.296;2024-02-26T12:39:07;94131.00;;;15.38;49.95
35892;BME280;21993;42.672;23.296;2024-02-26T12:41:34;94127.81;;;15.42;49.64
35892;BME280;21993;42.672;23.296;2024-02-26T12:44:00;94134.59;;;15.60;49.92
35892;BME280;21993;42.672;23.296;2024-02-26T12:46:26;94132.28;;;15.80;49.50
35892;BME280;21993;42.672;23.296;2024-02-26T12:48:56;94139.97;;;15.89;49.64
35892;BME280;21993;42.672;23.296;2024-02-26T12:51:26;94135.84;;;16.01;48.96
35892;BME280;21993;42.672;23.296;2024-02-26T12:53:54;94133.38;;;15.85;49.01
35892;BME280;21993;42.672;23.296;2024-02-26T12:56:25;94145.53;;;15.94;48.73
35892;BME280;21993;42.672;23.296;2024-02-26T12:58:53;94128.88;;;15.71;48.62